createdAt,value
2022-12-31T00:00:12.819Z,14.97
2022-12-31T00:01:12.764Z,14.95
2022-12-31T00:02:12.834Z,14.94
2022-12-31T00:03:13.850Z,14.97
2022-12-31T00:04:12.736Z,15.00
2022-12-31T00:05:12.711Z,15.07
2022-12-31T00:06:12.698Z,15.11
2022-12-31T00:07:12.666Z,15.12
2022-12-31T00:08:12.664Z,15.13
2022-12-31T00:09:12.644Z,15.15
2022-12-31T00:10:12.675Z,15.15
2022-12-31T00:11:12.643Z,15.16
2022-12-31T00:12:12.640Z,15.20
2022-12-31T00:13:13.762Z,15.22
2022-12-31T00:14:12.615Z,15.23
2022-12-31T00:15:12.812Z,15.23
2022-12-31T00:16:14.201Z,15.23
2022-12-31T00:17:14.272Z,15.23
2022-12-31T00:18:12.585Z,15.28
2022-12-31T00:19:12.547Z,15.31
2022-12-31T00:20:13.278Z,15.34
2022-12-31T00:21:12.536Z,15.34
2022-12-31T00:22:12.510Z,15.40
2022-12-31T00:23:12.506Z,15.43
2022-12-31T00:24:12.473Z,15.46
2022-12-31T00:25:12.465Z,15.46
2022-12-31T00:26:12.447Z,15.48
2022-12-31T00:27:12.487Z,15.48
2022-12-31T00:28:12.446Z,15.48
2022-12-31T00:29:13.200Z,15.49
2022-12-31T00:30:13.169Z,15.51
2022-12-31T00:31:12.426Z,15.51
2022-12-31T00:32:13.195Z,15.51
2022-12-31T00:33:12.406Z,15.52
2022-12-31T00:34:19.505Z,15.51
2022-12-31T00:35:13.213Z,15.51
2022-12-31T00:36:14.746Z,15.53
2022-12-31T00:37:12.366Z,15.55
2022-12-31T00:38:12.724Z,15.56
2022-12-31T00:39:12.308Z,15.62
2022-12-31T00:40:12.751Z,15.68
2022-12-31T00:41:13.208Z,15.71
2022-12-31T00:42:13.195Z,15.73
2022-12-31T00:43:12.721Z,15.70
2022-12-31T00:44:12.350Z,15.67
2022-12-31T00:45:12.744Z,15.62
2022-12-31T00:46:12.259Z,15.60
2022-12-31T00:47:12.767Z,15.62
2022-12-31T00:48:12.700Z,15.60
2022-12-31T00:49:13.310Z,15.62
2022-12-31T00:50:12.760Z,15.66
2022-12-31T00:51:13.155Z,15.68
2022-12-31T00:52:12.720Z,15.68
2022-12-31T00:53:13.734Z,15.68
2022-12-31T00:54:13.993Z,15.67
2022-12-31T00:55:12.735Z,15.66
2022-12-31T00:56:12.711Z,15.67
2022-12-31T00:57:12.732Z,15.68
2022-12-31T00:58:12.083Z,15.68
2022-12-31T00:59:12.721Z,15.68
2022-12-31T01:00:12.097Z,15.67
2022-12-31T01:01:13.272Z,15.70
2022-12-31T01:02:12.954Z,15.73
2022-12-31T01:03:13.350Z,15.73
2022-12-31T01:04:13.242Z,15.74
2022-12-31T01:05:12.754Z,15.74
2022-12-31T01:06:14.716Z,15.74
2022-12-31T01:07:13.272Z,15.74
2022-12-31T01:08:12.820Z,15.73
2022-12-31T01:09:14.279Z,15.78
2022-12-31T01:10:12.739Z,15.80
2022-12-31T01:11:11.958Z,15.77
2022-12-31T01:12:14.732Z,15.76
2022-12-31T01:13:14.721Z,15.81
2022-12-31T01:14:12.787Z,15.89
2022-12-31T01:15:13.230Z,15.89
2022-12-31T01:16:13.906Z,15.86
2022-12-31T01:17:12.614Z,15.88
2022-12-31T01:18:12.100Z,15.85
2022-12-31T01:19:12.729Z,15.86
2022-12-31T01:20:12.736Z,15.88
2022-12-31T01:21:12.706Z,15.88
2022-12-31T01:22:13.339Z,15.92
2022-12-31T01:23:12.624Z,15.93
2022-12-31T01:24:19.704Z,15.88
2022-12-31T01:25:12.775Z,15.88
2022-12-31T01:26:12.648Z,15.86
2022-12-31T01:27:12.755Z,15.85
2022-12-31T01:28:11.769Z,15.88
2022-12-31T01:29:13.235Z,15.89
2022-12-31T01:30:12.285Z,15.91
2022-12-31T01:31:14.299Z,15.89
2022-12-31T01:32:14.273Z,15.89
2022-12-31T01:33:12.255Z,15.89
2022-12-31T01:34:11.726Z,15.91
2022-12-31T01:35:12.659Z,15.88
2022-12-31T01:36:12.247Z,15.89
2022-12-31T01:37:12.759Z,15.89
2022-12-31T01:38:13.187Z,15.89
2022-12-31T01:39:12.736Z,15.92
2022-12-31T01:40:14.280Z,15.92
2022-12-31T01:41:12.463Z,15.92
2022-12-31T01:42:11.630Z,15.89
2022-12-31T01:43:13.146Z,15.88
2022-12-31T01:44:19.816Z,15.89
2022-12-31T01:45:11.801Z,15.92
2022-12-31T01:46:11.627Z,15.93
2022-12-31T01:47:12.316Z,15.93
2022-12-31T01:48:12.063Z,15.95
2022-12-31T01:49:11.550Z,15.93
2022-12-31T01:50:12.490Z,15.95
2022-12-31T01:51:13.810Z,15.95
2022-12-31T01:52:11.504Z,15.96
2022-12-31T01:53:12.120Z,16.04
2022-12-31T01:54:11.682Z,16.06
2022-12-31T01:55:12.684Z,16.07
2022-12-31T01:56:11.439Z,16.10
2022-12-31T01:57:11.439Z,16.11
2022-12-31T01:58:11.433Z,16.11
2022-12-31T01:59:11.420Z,16.16
2022-12-31T02:00:11.411Z,16.23
2022-12-31T02:01:11.443Z,16.22
2022-12-31T02:02:11.397Z,16.22
2022-12-31T02:03:11.514Z,16.22
2022-12-31T02:04:11.344Z,16.25
2022-12-31T02:05:11.350Z,16.25
2022-12-31T02:06:11.345Z,16.26
2022-12-31T02:07:11.306Z,16.32
2022-12-31T02:08:14.310Z,16.32
2022-12-31T02:09:12.518Z,16.34
2022-12-31T02:10:11.290Z,16.37
2022-12-31T02:11:11.254Z,16.47
2022-12-31T02:12:11.267Z,16.47
2022-12-31T02:13:11.265Z,16.45
2022-12-31T02:14:11.245Z,16.44
2022-12-31T02:15:11.296Z,16.42
2022-12-31T02:16:11.229Z,16.40
2022-12-31T02:17:11.209Z,16.40
2022-12-31T02:18:11.897Z,16.41
2022-12-31T02:19:11.178Z,16.42
2022-12-31T02:20:14.283Z,16.44
2022-12-31T02:21:11.159Z,16.45
2022-12-31T02:22:11.154Z,16.44
2022-12-31T02:23:11.150Z,16.42
2022-12-31T02:24:11.896Z,16.41
2022-12-31T02:25:11.130Z,16.40
2022-12-31T02:26:11.090Z,16.37
2022-12-31T02:27:13.795Z,16.41
2022-12-31T02:28:13.383Z,16.47
2022-12-31T02:29:11.096Z,16.50
2022-12-31T02:30:11.047Z,16.52
2022-12-31T02:31:11.097Z,16.51
2022-12-31T02:32:12.551Z,16.52
2022-12-31T02:33:11.050Z,16.59
2022-12-31T02:34:17.547Z,16.60
2022-12-31T02:35:11.018Z,16.62
2022-12-31T02:36:11.834Z,16.60
2022-12-31T02:37:10.979Z,16.60
2022-12-31T02:38:10.983Z,16.63
2022-12-31T02:39:10.955Z,16.63
2022-12-31T02:40:10.958Z,16.62
2022-12-31T02:41:10.960Z,16.59
2022-12-31T02:42:11.439Z,16.59
2022-12-31T02:43:10.935Z,16.57
2022-12-31T02:44:10.909Z,16.55
2022-12-31T02:45:10.916Z,16.54
2022-12-31T02:46:15.847Z,16.57
2022-12-31T02:47:12.881Z,16.60
2022-12-31T02:48:11.441Z,16.67
2022-12-31T02:49:10.840Z,16.69
2022-12-31T02:50:10.857Z,16.72
2022-12-31T02:51:10.837Z,16.73
2022-12-31T02:52:10.801Z,16.72
2022-12-31T02:53:10.794Z,16.70
2022-12-31T02:54:19.953Z,16.69
2022-12-31T02:55:11.389Z,16.69
2022-12-31T02:56:10.757Z,16.67
2022-12-31T02:57:10.774Z,16.70
2022-12-31T02:58:10.751Z,16.72
2022-12-31T02:59:10.754Z,16.72
2022-12-31T03:00:10.946Z,16.75
2022-12-31T03:01:11.604Z,16.80
2022-12-31T03:02:10.759Z,16.81
2022-12-31T03:03:10.920Z,16.85
2022-12-31T03:04:12.304Z,16.87
2022-12-31T03:05:12.461Z,16.85
2022-12-31T03:06:10.652Z,16.84
2022-12-31T03:07:13.352Z,16.82
2022-12-31T03:08:10.655Z,16.82
2022-12-31T03:09:10.606Z,16.81
2022-12-31T03:10:10.644Z,16.77
2022-12-31T03:11:10.601Z,16.78
2022-12-31T03:12:10.586Z,16.80
2022-12-31T03:13:10.567Z,16.80
2022-12-31T03:14:10.559Z,16.78
2022-12-31T03:15:10.558Z,16.78
2022-12-31T03:16:10.591Z,16.73
2022-12-31T03:17:10.591Z,16.73
2022-12-31T03:18:10.511Z,16.72
2022-12-31T03:19:11.479Z,16.75
2022-12-31T03:20:10.538Z,16.78
2022-12-31T03:21:10.469Z,16.81
2022-12-31T03:22:11.391Z,16.84
2022-12-31T03:23:11.452Z,16.84
2022-12-31T03:24:16.965Z,16.82
2022-12-31T03:25:11.312Z,16.81
2022-12-31T03:26:10.449Z,16.80
2022-12-31T03:27:10.420Z,16.78
2022-12-31T03:28:10.419Z,16.78
2022-12-31T03:29:11.325Z,16.77
2022-12-31T03:30:10.400Z,16.77
2022-12-31T03:31:10.397Z,16.75
2022-12-31T03:32:10.353Z,16.77
2022-12-31T03:33:10.385Z,16.75
2022-12-31T03:34:10.918Z,16.80
2022-12-31T03:35:10.320Z,16.78
2022-12-31T03:36:10.331Z,16.78
2022-12-31T03:37:10.316Z,16.75
2022-12-31T03:38:10.307Z,16.73
2022-12-31T03:39:10.269Z,16.75
2022-12-31T03:40:10.283Z,16.73
2022-12-31T03:41:10.911Z,16.73
2022-12-31T03:42:11.010Z,16.73
2022-12-31T03:43:10.234Z,16.75
2022-12-31T03:44:10.214Z,16.72
2022-12-31T03:45:10.224Z,16.70
2022-12-31T03:46:10.268Z,16.69
2022-12-31T03:47:10.806Z,16.72
2022-12-31T03:48:10.304Z,16.77
2022-12-31T03:49:10.379Z,16.77
2022-12-31T03:50:10.173Z,16.77
2022-12-31T03:51:10.140Z,16.75
2022-12-31T03:52:10.125Z,16.75
2022-12-31T03:53:10.125Z,16.77
2022-12-31T03:54:10.122Z,16.80
2022-12-31T03:55:10.119Z,16.80
2022-12-31T03:56:10.826Z,16.78
2022-12-31T03:57:10.076Z,16.78
2022-12-31T03:58:10.077Z,16.80
2022-12-31T03:59:10.055Z,16.80
2022-12-31T04:00:10.914Z,16.80
2022-12-31T04:01:12.519Z,16.80
2022-12-31T04:02:10.265Z,16.82
2022-12-31T04:03:10.034Z,16.85
2022-12-31T04:04:16.527Z,16.87
2022-12-31T04:05:09.997Z,16.85
2022-12-31T04:06:09.978Z,16.82
2022-12-31T04:07:10.072Z,16.82
2022-12-31T04:08:09.968Z,16.81
2022-12-31T04:09:09.936Z,16.80
2022-12-31T04:10:09.947Z,16.81
2022-12-31T04:11:12.068Z,16.81
2022-12-31T04:12:09.906Z,16.78
2022-12-31T04:13:09.934Z,16.78
2022-12-31T04:14:09.883Z,16.77
2022-12-31T04:15:09.865Z,16.75
2022-12-31T04:16:09.898Z,16.75
2022-12-31T04:17:09.871Z,16.75
2022-12-31T04:18:09.850Z,16.72
2022-12-31T04:19:10.713Z,16.73
2022-12-31T04:20:11.476Z,16.73
2022-12-31T04:21:10.467Z,16.72
2022-12-31T04:22:09.795Z,16.73
2022-12-31T04:23:09.783Z,16.73
2022-12-31T04:24:09.787Z,16.78
2022-12-31T04:25:10.355Z,16.80
2022-12-31T04:26:09.751Z,16.81
2022-12-31T04:27:09.757Z,16.82
2022-12-31T04:28:10.553Z,16.87
2022-12-31T04:29:09.728Z,16.91
2022-12-31T04:30:09.721Z,16.91
2022-12-31T04:31:09.894Z,16.91
2022-12-31T04:32:09.776Z,16.91
2022-12-31T04:33:09.678Z,16.92
2022-12-31T04:34:16.183Z,16.90
2022-12-31T04:35:10.524Z,16.90
2022-12-31T04:36:10.555Z,16.90
2022-12-31T04:37:10.721Z,16.88
2022-12-31T04:38:10.994Z,16.91
2022-12-31T04:39:09.619Z,16.91
2022-12-31T04:40:10.576Z,16.91
2022-12-31T04:41:10.072Z,16.92
2022-12-31T04:42:10.069Z,16.92
2022-12-31T04:43:10.075Z,16.95
2022-12-31T04:44:10.063Z,16.96
2022-12-31T04:45:10.076Z,16.99
2022-12-31T04:46:09.824Z,17.03
2022-12-31T04:47:10.079Z,17.09
2022-12-31T04:48:10.074Z,17.12
2022-12-31T04:49:10.066Z,17.14
2022-12-31T04:50:10.082Z,17.15
2022-12-31T04:51:10.079Z,17.14
2022-12-31T04:52:10.003Z,17.18
2022-12-31T04:53:09.973Z,17.20
2022-12-31T04:54:15.941Z,17.18
2022-12-31T04:55:10.106Z,17.20
2022-12-31T04:56:10.111Z,17.20
2022-12-31T04:57:12.533Z,17.17
2022-12-31T04:58:10.107Z,17.17
2022-12-31T04:59:10.112Z,17.17
2022-12-31T05:00:10.118Z,17.18
2022-12-31T05:01:09.544Z,17.18
2022-12-31T05:02:10.167Z,17.18
2022-12-31T05:03:10.142Z,17.17
2022-12-31T05:04:10.112Z,17.17
2022-12-31T05:05:10.116Z,17.17
2022-12-31T05:06:10.110Z,17.18
2022-12-31T05:07:10.114Z,17.20
2022-12-31T05:08:10.098Z,17.22
2022-12-31T05:09:10.043Z,17.24
2022-12-31T05:10:10.044Z,17.30
2022-12-31T05:11:10.116Z,17.36
2022-12-31T05:12:10.596Z,17.38
2022-12-31T05:13:10.108Z,17.40
2022-12-31T05:14:10.111Z,17.42
2022-12-31T05:15:10.113Z,17.45
2022-12-31T05:16:10.117Z,17.42
2022-12-31T05:17:10.055Z,17.40
2022-12-31T05:18:10.054Z,17.43
2022-12-31T05:19:10.123Z,17.46
2022-12-31T05:20:11.048Z,17.46
2022-12-31T05:21:10.104Z,17.49
2022-12-31T05:22:09.636Z,17.49
2022-12-31T05:23:09.608Z,17.49
2022-12-31T05:24:16.132Z,17.49
2022-12-31T05:25:09.659Z,17.51
2022-12-31T05:26:10.141Z,17.49
2022-12-31T05:27:09.637Z,17.49
2022-12-31T05:28:09.704Z,17.51
2022-12-31T05:29:09.844Z,17.54
2022-12-31T05:30:09.644Z,17.54
2022-12-31T05:31:09.087Z,17.54
2022-12-31T05:32:09.653Z,17.51
2022-12-31T05:33:09.637Z,17.57
2022-12-31T05:34:10.161Z,17.63
2022-12-31T05:35:09.174Z,17.65
2022-12-31T05:36:09.662Z,17.66
2022-12-31T05:37:09.660Z,17.66
2022-12-31T05:38:09.586Z,17.68
2022-12-31T05:39:09.651Z,17.73
2022-12-31T05:40:09.572Z,17.73
2022-12-31T05:41:09.581Z,17.73
2022-12-31T05:42:09.648Z,17.73
2022-12-31T05:43:10.585Z,17.73
2022-12-31T05:44:15.355Z,17.71
2022-12-31T05:45:09.049Z,17.74
2022-12-31T05:46:10.164Z,17.76
2022-12-31T05:47:08.850Z,17.77
2022-12-31T05:48:09.608Z,17.83
2022-12-31T05:49:08.815Z,17.83
2022-12-31T05:50:08.792Z,17.83
2022-12-31T05:51:09.661Z,17.86
2022-12-31T05:52:10.621Z,17.84
2022-12-31T05:53:09.688Z,17.86
2022-12-31T05:54:08.730Z,17.86
2022-12-31T05:55:09.614Z,17.84
2022-12-31T05:56:08.726Z,17.84
2022-12-31T05:57:09.611Z,17.83
2022-12-31T05:58:10.111Z,17.81
2022-12-31T05:59:10.185Z,17.81
2022-12-31T06:00:08.690Z,17.80
2022-12-31T06:01:08.724Z,17.79
2022-12-31T06:02:08.649Z,17.79
2022-12-31T06:03:08.724Z,17.76
2022-12-31T06:04:15.436Z,17.74
2022-12-31T06:05:08.643Z,17.74
2022-12-31T06:06:08.624Z,17.76
2022-12-31T06:07:09.125Z,17.81
2022-12-31T06:08:08.596Z,17.84
2022-12-31T06:09:08.570Z,17.84
2022-12-31T06:10:10.627Z,17.84
2022-12-31T06:11:09.152Z,17.84
2022-12-31T06:12:08.550Z,17.81
2022-12-31T06:13:08.555Z,17.83
2022-12-31T06:14:08.505Z,17.80
2022-12-31T06:15:08.517Z,17.79
2022-12-31T06:16:08.587Z,17.77
2022-12-31T06:17:08.509Z,17.77
2022-12-31T06:18:08.498Z,17.80
2022-12-31T06:19:08.457Z,17.80
2022-12-31T06:20:12.827Z,17.77
2022-12-31T06:21:08.440Z,17.77
2022-12-31T06:22:08.532Z,17.77
2022-12-31T06:23:08.435Z,17.79
2022-12-31T06:24:08.421Z,17.77
2022-12-31T06:25:08.397Z,17.77
2022-12-31T06:26:08.397Z,17.77
2022-12-31T06:27:08.394Z,17.79
2022-12-31T06:28:12.155Z,17.77
2022-12-31T06:29:10.155Z,17.80
2022-12-31T06:30:08.355Z,17.80
2022-12-31T06:31:08.422Z,17.80
2022-12-31T06:32:08.314Z,17.83
2022-12-31T06:33:08.313Z,17.83
2022-12-31T06:34:14.830Z,17.84
2022-12-31T06:35:10.168Z,17.89
2022-12-31T06:36:08.266Z,17.91
2022-12-31T06:37:08.272Z,17.91
2022-12-31T06:38:08.273Z,17.89
2022-12-31T06:39:10.250Z,17.89
2022-12-31T06:40:08.240Z,17.89
2022-12-31T06:41:08.218Z,17.89
2022-12-31T06:42:08.227Z,17.91
2022-12-31T06:43:08.198Z,17.96
2022-12-31T06:44:08.191Z,17.99
2022-12-31T06:45:08.207Z,17.98
2022-12-31T06:46:08.347Z,17.95
2022-12-31T06:47:10.754Z,17.96
2022-12-31T06:48:08.680Z,17.96
2022-12-31T06:49:08.168Z,17.98
2022-12-31T06:50:08.134Z,17.96
2022-12-31T06:51:13.426Z,17.96
2022-12-31T06:52:08.096Z,17.99
2022-12-31T06:53:08.149Z,18.02
2022-12-31T06:54:14.596Z,18.02
2022-12-31T06:55:08.269Z,18.01
2022-12-31T06:56:08.075Z,17.99
2022-12-31T06:57:08.072Z,17.96
2022-12-31T06:58:08.043Z,17.94
2022-12-31T06:59:09.389Z,17.94
2022-12-31T07:00:08.693Z,17.94
2022-12-31T07:01:08.726Z,17.94
2022-12-31T07:02:08.100Z,17.98
2022-12-31T07:03:07.987Z,17.99
2022-12-31T07:04:07.969Z,18.01
2022-12-31T07:05:07.949Z,18.04
2022-12-31T07:06:10.712Z,18.04
2022-12-31T07:07:08.969Z,18.01
2022-12-31T07:08:07.933Z,18.01
2022-12-31T07:09:08.768Z,18.01
2022-12-31T07:10:07.901Z,18.01
2022-12-31T07:11:07.899Z,18.02
2022-12-31T07:12:07.874Z,18.04
2022-12-31T07:13:08.770Z,18.04
2022-12-31T07:14:14.373Z,18.01
2022-12-31T07:15:07.855Z,18.02
2022-12-31T07:16:07.871Z,18.01
2022-12-31T07:17:07.809Z,18.01
2022-12-31T07:18:07.811Z,18.02
2022-12-31T07:19:07.788Z,18.05
2022-12-31T07:20:07.805Z,18.09
2022-12-31T07:21:07.763Z,18.05
2022-12-31T07:22:07.760Z,18.07
2022-12-31T07:23:07.742Z,18.09
2022-12-31T07:24:07.827Z,18.09
2022-12-31T07:25:10.692Z,18.10
2022-12-31T07:26:08.805Z,18.10
2022-12-31T07:27:07.718Z,18.13
2022-12-31T07:28:08.228Z,18.11
2022-12-31T07:29:08.604Z,18.11
2022-12-31T07:30:08.243Z,18.09
2022-12-31T07:31:07.668Z,18.09
2022-12-31T07:32:07.662Z,18.09
2022-12-31T07:33:07.637Z,18.07
2022-12-31T07:34:07.648Z,18.09
2022-12-31T07:35:07.602Z,18.10
2022-12-31T07:36:07.635Z,18.09
2022-12-31T07:37:07.586Z,18.07
2022-12-31T07:38:07.609Z,18.07
2022-12-31T07:39:07.591Z,18.05
2022-12-31T07:40:08.633Z,18.02
2022-12-31T07:41:10.094Z,18.04
2022-12-31T07:42:07.536Z,18.04
2022-12-31T07:43:07.521Z,18.07
2022-12-31T07:44:07.524Z,18.05
2022-12-31T07:45:10.826Z,18.09
2022-12-31T07:46:07.594Z,18.07
2022-12-31T07:47:07.502Z,18.07
2022-12-31T07:48:07.462Z,18.05
2022-12-31T07:49:07.472Z,18.07
2022-12-31T07:50:07.462Z,18.10
2022-12-31T07:51:07.440Z,18.11
2022-12-31T07:52:07.437Z,18.14
2022-12-31T07:53:07.415Z,18.19
2022-12-31T07:54:13.386Z,18.20
2022-12-31T07:55:07.470Z,18.20
2022-12-31T07:56:07.399Z,18.19
2022-12-31T07:57:07.367Z,18.19
2022-12-31T07:58:07.358Z,18.16
2022-12-31T07:59:07.384Z,18.16
2022-12-31T08:00:07.335Z,18.14
2022-12-31T08:01:07.425Z,18.16
2022-12-31T08:02:08.230Z,18.17
2022-12-31T08:03:08.309Z,18.17
2022-12-31T08:04:07.280Z,18.19
2022-12-31T08:05:07.274Z,18.19
2022-12-31T08:06:07.272Z,18.20
2022-12-31T08:07:07.480Z,18.17
2022-12-31T08:08:07.267Z,18.19
2022-12-31T08:09:08.217Z,18.19
2022-12-31T08:10:10.165Z,18.20
2022-12-31T08:11:07.214Z,18.19
2022-12-31T08:12:07.218Z,18.19
2022-12-31T08:13:12.599Z,18.17
2022-12-31T08:14:13.692Z,18.17
2022-12-31T08:15:07.779Z,18.19
2022-12-31T08:16:07.265Z,18.20
2022-12-31T08:17:07.153Z,18.23
2022-12-31T08:18:07.143Z,18.23
2022-12-31T08:19:07.140Z,18.25
2022-12-31T08:20:07.129Z,18.26
2022-12-31T08:21:07.800Z,18.26
2022-12-31T08:22:07.789Z,18.25
2022-12-31T08:23:07.089Z,18.23
2022-12-31T08:24:07.082Z,18.20
2022-12-31T08:25:07.271Z,18.20
2022-12-31T08:26:07.104Z,18.23
2022-12-31T08:27:07.662Z,18.26
2022-12-31T08:28:07.029Z,18.26
2022-12-31T08:29:07.026Z,18.25
2022-12-31T08:30:06.995Z,18.26
2022-12-31T08:31:06.999Z,18.26
2022-12-31T08:32:06.959Z,18.26
2022-12-31T08:33:07.772Z,18.25
2022-12-31T08:35:17.654Z,18.23
2022-12-31T08:36:18.622Z,18.28
2022-12-31T08:37:18.642Z,18.29
2022-12-31T08:38:18.594Z,18.28
2022-12-31T08:39:18.594Z,18.28
2022-12-31T08:40:18.584Z,18.31
2022-12-31T08:41:18.579Z,18.31
2022-12-31T08:42:18.564Z,18.31
2022-12-31T08:43:18.582Z,18.34
2022-12-31T08:44:19.227Z,18.36
2022-12-31T08:45:18.527Z,18.35
2022-12-31T08:46:18.546Z,18.36
2022-12-31T08:47:18.488Z,18.34
2022-12-31T08:48:18.484Z,18.38
2022-12-31T08:49:18.469Z,18.38
2022-12-31T08:50:18.675Z,18.38
2022-12-31T08:51:18.480Z,18.39
2022-12-31T08:52:18.426Z,18.36
2022-12-31T08:53:18.440Z,18.38
2022-12-31T08:54:18.403Z,18.38
2022-12-31T08:55:18.428Z,18.39
2022-12-31T08:56:18.483Z,18.39
2022-12-31T08:57:18.382Z,18.38
2022-12-31T08:58:18.370Z,18.38
2022-12-31T08:59:18.368Z,18.35
2022-12-31T09:00:18.360Z,18.32
2022-12-31T09:01:18.490Z,18.35
2022-12-31T09:02:20.718Z,18.38
2022-12-31T09:03:20.753Z,18.42
2022-12-31T09:04:26.365Z,18.42
2022-12-31T09:05:18.278Z,18.46
2022-12-31T09:06:18.263Z,18.47
2022-12-31T09:07:18.299Z,18.47
2022-12-31T09:08:18.256Z,18.49
2022-12-31T09:09:18.230Z,18.50
2022-12-31T09:10:18.235Z,18.53
2022-12-31T09:11:22.880Z,18.54
2022-12-31T09:12:20.690Z,18.53
2022-12-31T09:13:18.454Z,18.51
2022-12-31T09:14:18.187Z,18.51
2022-12-31T09:15:18.167Z,18.53
2022-12-31T09:16:18.182Z,18.54
2022-12-31T09:17:18.161Z,18.53
2022-12-31T09:18:18.140Z,18.54
2022-12-31T09:19:19.084Z,18.56
2022-12-31T09:20:18.109Z,18.56
2022-12-31T09:21:19.604Z,18.54
2022-12-31T09:22:18.324Z,18.54
2022-12-31T09:23:18.191Z,18.53
2022-12-31T09:24:18.075Z,18.53
2022-12-31T09:25:18.070Z,18.51
2022-12-31T09:26:18.041Z,18.50
2022-12-31T09:27:22.441Z,18.51
2022-12-31T09:28:18.017Z,18.54
2022-12-31T09:29:18.030Z,18.57
2022-12-31T09:30:18.201Z,18.57
2022-12-31T09:31:18.028Z,18.60
2022-12-31T09:32:17.986Z,18.59
2022-12-31T09:33:17.983Z,18.57
2022-12-31T09:34:17.971Z,18.59
2022-12-31T09:35:17.974Z,18.57
2022-12-31T09:36:17.939Z,18.59
2022-12-31T09:37:17.937Z,18.60
2022-12-31T09:38:17.905Z,18.60
2022-12-31T09:39:17.895Z,18.64
2022-12-31T09:40:18.420Z,18.64
2022-12-31T09:41:20.193Z,18.62
2022-12-31T09:42:18.674Z,18.65
2022-12-31T09:43:17.875Z,18.66
2022-12-31T09:44:24.373Z,18.66
2022-12-31T09:45:17.854Z,18.68
2022-12-31T09:46:17.880Z,18.68
2022-12-31T09:47:17.809Z,18.68
2022-12-31T09:48:17.784Z,18.69
2022-12-31T09:49:17.807Z,18.69
2022-12-31T09:50:17.813Z,18.71
2022-12-31T09:51:21.774Z,18.71
2022-12-31T09:52:17.762Z,18.69
2022-12-31T09:53:17.754Z,18.69
2022-12-31T09:54:17.725Z,18.69
2022-12-31T09:55:17.730Z,18.71
2022-12-31T09:56:17.706Z,18.72
2022-12-31T09:57:17.691Z,18.72
2022-12-31T09:58:17.759Z,18.74
2022-12-31T09:59:17.697Z,18.74
2022-12-31T10:00:17.650Z,18.74
2022-12-31T10:01:18.628Z,18.74
2022-12-31T10:02:17.834Z,18.74
2022-12-31T10:03:17.715Z,18.76
2022-12-31T10:04:17.671Z,18.75
2022-12-31T10:05:17.611Z,18.76
2022-12-31T10:06:17.581Z,18.76
2022-12-31T10:07:17.584Z,18.76
2022-12-31T10:08:17.555Z,18.78
2022-12-31T10:09:17.583Z,18.79
2022-12-31T10:10:17.560Z,18.82
2022-12-31T10:11:17.558Z,18.83
2022-12-31T10:12:17.513Z,18.83
2022-12-31T10:13:17.511Z,18.83
2022-12-31T10:14:24.048Z,18.83
2022-12-31T10:15:17.499Z,18.84
2022-12-31T10:16:17.579Z,18.84
2022-12-31T10:17:17.464Z,18.86
2022-12-31T10:18:17.465Z,18.87
2022-12-31T10:19:18.258Z,18.89
2022-12-31T10:20:18.405Z,18.91
2022-12-31T10:21:17.451Z,18.91
2022-12-31T10:22:17.401Z,18.91
2022-12-31T10:23:17.399Z,18.91
2022-12-31T10:24:17.373Z,18.93
2022-12-31T10:25:18.260Z,18.94
2022-12-31T10:26:17.382Z,18.94
2022-12-31T10:27:17.355Z,18.94
2022-12-31T10:28:17.330Z,18.96
2022-12-31T10:29:17.429Z,18.97
2022-12-31T10:30:17.503Z,18.97
2022-12-31T10:31:17.406Z,18.97
2022-12-31T10:32:17.303Z,18.97
2022-12-31T10:33:17.320Z,18.97
2022-12-31T10:34:17.867Z,18.96
2022-12-31T10:35:17.289Z,18.96
2022-12-31T10:36:17.274Z,18.96
2022-12-31T10:37:18.266Z,18.96
2022-12-31T10:38:17.263Z,18.96
2022-12-31T10:39:24.018Z,18.96
2022-12-31T10:40:17.970Z,18.94
2022-12-31T10:41:17.199Z,18.94
2022-12-31T10:42:17.179Z,18.96
2022-12-31T10:43:17.205Z,18.97
2022-12-31T10:44:17.183Z,18.99
2022-12-31T10:45:17.158Z,19.01
2022-12-31T10:46:22.677Z,19.05
2022-12-31T10:47:17.153Z,19.05
2022-12-31T10:48:17.140Z,19.02
2022-12-31T10:49:17.117Z,19.02
2022-12-31T10:50:17.191Z,19.01
2022-12-31T10:51:17.317Z,19.01
2022-12-31T10:52:17.099Z,19.02
2022-12-31T10:53:17.252Z,19.02
2022-12-31T10:54:17.053Z,19.01
2022-12-31T10:55:17.059Z,19.02
2022-12-31T10:56:17.040Z,19.05
2022-12-31T10:57:17.009Z,19.06
2022-12-31T10:58:17.672Z,19.07
2022-12-31T10:59:19.296Z,19.09
2022-12-31T11:00:17.028Z,19.10
2022-12-31T11:01:17.104Z,19.09
2022-12-31T11:02:17.212Z,19.09
2022-12-31T11:03:16.992Z,19.07
2022-12-31T11:04:24.945Z,19.06
2022-12-31T11:05:16.945Z,19.09
2022-12-31T11:06:16.964Z,19.10
2022-12-31T11:07:16.896Z,19.12
2022-12-31T11:08:16.892Z,19.12
2022-12-31T11:09:16.920Z,19.12
2022-12-31T11:10:16.998Z,19.12
2022-12-31T11:11:16.870Z,19.12
2022-12-31T11:12:16.873Z,19.10
2022-12-31T11:13:16.851Z,19.09
2022-12-31T11:14:16.863Z,19.09
2022-12-31T11:15:16.839Z,19.09
2022-12-31T11:16:16.870Z,19.07
2022-12-31T11:17:16.805Z,19.05
2022-12-31T11:18:16.820Z,19.02
2022-12-31T11:19:16.803Z,19.05
2022-12-31T11:20:16.801Z,19.06
2022-12-31T11:21:16.737Z,19.09
2022-12-31T11:22:16.755Z,19.10
2022-12-31T11:23:16.723Z,19.10
2022-12-31T11:24:23.260Z,19.12
2022-12-31T11:25:16.730Z,19.15
2022-12-31T11:26:16.707Z,19.13
2022-12-31T11:27:16.705Z,19.12
2022-12-31T11:28:16.899Z,19.10
2022-12-31T11:29:16.674Z,19.10
2022-12-31T11:30:16.671Z,19.12
2022-12-31T11:31:16.729Z,19.12
2022-12-31T11:32:16.656Z,19.15
2022-12-31T11:33:16.641Z,19.17
2022-12-31T11:34:16.627Z,19.16
2022-12-31T11:35:16.601Z,19.16
2022-12-31T11:36:16.583Z,19.16
2022-12-31T11:37:16.568Z,19.17
2022-12-31T11:38:16.579Z,19.17
2022-12-31T11:39:16.546Z,19.16
2022-12-31T11:40:16.564Z,19.13
2022-12-31T11:41:16.547Z,19.15
2022-12-31T11:42:16.537Z,19.15
2022-12-31T11:43:16.526Z,19.15
2022-12-31T11:44:17.170Z,19.12
2022-12-31T11:45:21.402Z,19.12
2022-12-31T11:46:16.559Z,19.10
2022-12-31T11:47:16.480Z,19.09
2022-12-31T11:48:32.520Z,19.09
2022-12-31T11:49:16.448Z,19.09
2022-12-31T11:50:16.439Z,19.10
2022-12-31T11:51:16.409Z,19.07
2022-12-31T11:52:21.205Z,19.07
2022-12-31T11:53:16.407Z,19.07
2022-12-31T11:54:23.103Z,19.06
2022-12-31T11:55:16.366Z,19.05
2022-12-31T11:56:16.374Z,19.06
2022-12-31T11:57:22.911Z,19.06
2022-12-31T11:58:16.597Z,19.09
2022-12-31T11:59:19.685Z,19.10
2022-12-31T12:00:16.339Z,19.09
2022-12-31T12:01:16.340Z,19.09
2022-12-31T12:02:16.368Z,19.05
2022-12-31T12:03:16.286Z,19.02
2022-12-31T12:04:16.306Z,19.01
2022-12-31T12:05:16.258Z,19.01
2022-12-31T12:06:16.262Z,18.99
2022-12-31T12:07:16.244Z,18.97
2022-12-31T12:08:16.221Z,18.96
2022-12-31T12:09:16.212Z,18.93
2022-12-31T12:10:16.232Z,18.93
2022-12-31T12:11:16.194Z,18.91
2022-12-31T12:12:16.206Z,18.91
2022-12-31T12:13:16.162Z,18.91
2022-12-31T12:14:16.173Z,18.91
2022-12-31T12:15:16.139Z,18.91
2022-12-31T12:16:16.231Z,18.90
2022-12-31T12:17:16.121Z,18.91
2022-12-31T12:18:16.118Z,18.91
2022-12-31T12:19:16.107Z,18.91
2022-12-31T12:20:16.114Z,18.93
2022-12-31T12:21:16.096Z,18.93
2022-12-31T12:22:16.083Z,18.94
2022-12-31T12:23:16.094Z,18.93
2022-12-31T12:24:16.069Z,18.94
2022-12-31T12:25:16.052Z,18.94
2022-12-31T12:26:16.027Z,18.94
2022-12-31T12:27:16.037Z,18.94
2022-12-31T12:28:15.989Z,18.97
2022-12-31T12:29:16.016Z,18.97
2022-12-31T12:30:15.964Z,18.94
2022-12-31T12:31:15.999Z,18.93
2022-12-31T12:32:15.972Z,18.94
2022-12-31T12:33:16.004Z,18.96
2022-12-31T12:34:15.948Z,18.93
2022-12-31T12:35:15.963Z,18.94
2022-12-31T12:36:15.913Z,18.94
2022-12-31T12:37:15.943Z,18.96
2022-12-31T12:38:15.875Z,18.97
2022-12-31T12:39:15.893Z,18.99
2022-12-31T12:40:15.857Z,18.99
2022-12-31T12:41:16.082Z,18.97
2022-12-31T12:42:15.848Z,19.01
2022-12-31T12:43:15.872Z,19.05
2022-12-31T12:44:15.809Z,19.05
2022-12-31T12:45:15.844Z,19.06
2022-12-31T12:46:15.865Z,19.02
2022-12-31T12:47:15.807Z,19.06
2022-12-31T12:48:15.768Z,19.07
2022-12-31T12:49:15.883Z,19.09
2022-12-31T12:50:15.742Z,19.10
2022-12-31T12:51:16.395Z,19.09
2022-12-31T12:52:15.724Z,19.10
2022-12-31T12:53:15.761Z,19.10